Time;durP1;ratioP1;P1;durP2;ratioP2;P2;SDS_P1;SDS_P2;PMS_P1;PMS_P2;Temp;Humidity;BMP_temperature;BMP_pressure;BME280_temperature;BME280_humidity;BME280_pressure;Samples;Min_cycle;Max_cycle;Signal;HPM_P1;HPM_P2
2023/09/14 00:01:54;;;;;;;;;;;;;;;18.65;67.55;100910.12;107756;1282;71265;-90
2023/09/14 00:05:20;;;;;;;;;;;;;;;18.62;67.62;100915.46;107205;1288;60153;-90
2023/09/14 00:08:47;;;;;;;;;;;;;;;18.61;67.48;100916.38;107186;1288;58920;-90
2023/09/14 00:12:14;;;;;;;;;;;;;;;18.59;67.61;100921.88;107185;1288;73669;-90
2023/09/14 00:15:40;;;;;;;;;;;;;;;18.56;67.35;100924.10;107840;1283;67018;-90
2023/09/14 00:19:09;;;;;;;;;;;;;;;18.55;67.43;100926.22;107820;1281;72929;-90
2023/09/14 00:22:34;;;;;;;;;;;;;;;18.54;67.43;100925.05;107799;1282;59284;-90
2023/09/14 00:26:01;;;;;;;;;;;;;;;18.52;67.22;100930.02;107860;1282;59494;-90
2023/09/14 00:29:28;;;;;;;;;;;;;;;18.48;67.33;100927.20;108589;1275;74003;-90
2023/09/14 00:32:55;;;;;;;;;;;;;;;18.47;67.31;100932.88;108566;1275;67109;-90
2023/09/14 00:36:21;;;;;;;;;;;;;;;18.46;67.31;100935.85;108830;1268;72157;-90
2023/09/14 00:39:47;;;;;;;;;;;;;;;18.45;67.25;100937.30;108869;1269;59160;-90
2023/09/14 00:43:14;;;;;;;;;;;;;;;18.41;67.42;100939.20;108736;1272;58999;-91
2023/09/14 00:46:40;;;;;;;;;;;;;;;18.40;67.36;100939.95;108781;1269;74327;-90
2023/09/14 00:50:08;;;;;;;;;;;;;;;18.40;67.53;100943.99;108806;1272;67348;-91
2023/09/14 00:53:35;;;;;;;;;;;;;;;18.36;67.21;100945.91;108779;1269;70243;-90
2023/09/14 00:59:08;;;;;;;;;;;;;;;18.27;67.20;100947.67;109350;1262;59206;-90
2023/09/14 01:02:34;;;;;;;;;;;;;;;18.20;67.19;100951.13;108812;1268;72959;-91
2023/09/14 01:06:00;;;;;;;;;;;;;;;18.14;67.25;100959.59;108864;1269;67376;-90
2023/09/14 01:09:27;;;;;;;;;;;;;;;18.07;67.35;100963.38;108804;1270;72590;-90
2023/09/14 01:12:53;;;;;;;;;;;;;;;18.02;67.16;100970.05;108864;1269;58932;-90
2023/09/14 01:16:19;;;;;;;;;;;;;;;17.95;67.22;100969.47;108827;1269;58835;-90
2023/09/14 01:19:46;;;;;;;;;;;;;;;17.86;67.24;100978.52;108354;1276;73529;-89
2023/09/14 01:23:12;;;;;;;;;;;;;;;17.76;67.21;100982.45;108381;1276;69257;-90
2023/09/14 01:26:39;;;;;;;;;;;;;;;17.69;67.27;100982.74;103586;1282;5171537;-90
2023/09/14 01:30:06;;;;;;;;;;;;;;;17.60;67.28;100990.04;107673;1282;59254;-90
2023/09/14 01:33:31;;;;;;;;;;;;;;;17.49;67.28;100993.07;107158;1288;58976;-90
2023/09/14 01:37:06;;;;;;;;;;;;;;;17.41;67.29;100999.50;107149;1288;73286;-90
2023/09/14 01:40:33;;;;;;;;;;;;;;;17.37;67.42;101005.05;107732;1283;67317;-90
2023/09/14 01:43:59;;;;;;;;;;;;;;;17.28;67.27;101008.86;107702;1283;71493;-89
2023/09/14 01:47:27;;;;;;;;;;;;;;;17.19;67.36;101010.44;107691;1283;59137;-90
2023/09/14 01:50:53;;;;;;;;;;;;;;;17.12;67.35;101012.63;107724;1282;59020;-90
2023/09/14 01:54:20;;;;;;;;;;;;;;;17.04;67.43;101013.45;107719;1282;73035;-91
2023/09/14 01:57:47;;;;;;;;;;;;;;;16.99;67.31;101019.73;108447;1275;67572;-91
2023/09/14 02:09:03;;;;;;;;;;;;;;;16.75;67.45;101023.18;109431;1260;73073;-90
2023/09/14 02:12:29;;;;;;;;;;;;;;;16.72;67.45;101026.77;108960;1267;68328;-89
2023/09/14 02:15:55;;;;;;;;;;;;;;;16.69;67.59;101028.79;108900;1267;71026;-90
2023/09/14 02:19:22;;;;;;;;;;;;;;;16.66;67.53;101030.10;108900;1267;58826;-90
2023/09/14 02:22:48;;;;;;;;;;;;;;;16.60;67.59;101032.61;108926;1267;59269;-90
2023/09/14 02:26:14;;;;;;;;;;;;;;;16.55;67.49;101034.48;108937;1267;74796;-90
2023/09/14 02:29:41;;;;;;;;;;;;;;;16.47;67.69;101031.45;108928;1267;67239;-90
2023/09/14 02:33:10;;;;;;;;;;;;;;;16.40;67.65;101032.91;108893;1267;72521;-90
2023/09/14 02:36:36;;;;;;;;;;;;;;;16.33;67.78;101034.89;108933;1267;58890;-90
2023/09/14 02:40:06;;;;;;;;;;;;;;;16.30;67.77;101037.23;108587;1273;58884;-90
2023/09/14 02:43:32;;;;;;;;;;;;;;;16.31;67.68;101044.87;108630;1273;72476;-90
2023/09/14 02:46:58;;;;;;;;;;;;;;;16.29;67.79;101049.80;108624;1273;68266;-90
2023/09/14 02:50:25;;;;;;;;;;;;;;;16.28;67.70;101047.59;108876;1268;72325;-90
2023/09/14 02:53:51;;;;;;;;;;;;;;;16.21;67.80;101051.43;108916;1267;58939;-90
2023/09/14 02:57:17;;;;;;;;;;;;;;;16.17;67.83;101055.73;108852;1268;59397;-90
2023/09/14 03:00:44;;;;;;;;;;;;;;;16.16;67.91;101063.61;108608;1273;74188;-91
2023/09/14 03:04:10;;;;;;;;;;;;;;;16.08;67.85;101065.98;108583;1273;67358;-90
2023/09/14 03:07:36;;;;;;;;;;;;;;;16.02;67.97;101072.77;108576;1273;71404;-89
2023/09/14 03:11:03;;;;;;;;;;;;;;;15.99;68.08;101074.98;108570;1274;58936;-89
2023/09/14 03:14:29;;;;;;;;;;;;;;;15.96;67.98;101075.75;108616;1272;60029;-89
2023/09/14 03:17:55;;;;;;;;;;;;;;;15.91;67.95;101082.68;108836;1268;73534;-90
2023/09/14 03:21:22;;;;;;;;;;;;;;;15.88;68.05;101082.76;108827;1268;68360;-90
2023/09/14 03:24:48;;;;;;;;;;;;;;;15.88;68.14;101083.47;108840;1268;72759;-90
2023/09/14 03:28:16;;;;;;;;;;;;;;;15.87;68.09;101083.31;108826;1268;59004;-89
2023/09/14 03:31:43;;;;;;;;;;;;;;;15.82;68.12;101082.94;108830;1268;58686;-90
2023/09/14 03:35:09;;;;;;;;;;;;;;;15.79;68.14;101086.00;108834;1268;73258;-90
2023/09/14 03:38:36;;;;;;;;;;;;;;;15.77;68.26;101091.29;109412;1262;66357;-89
2023/09/14 03:42:02;;;;;;;;;;;;;;;15.74;68.28;101100.91;109416;1262;70659;-90
2023/09/14 03:45:28;;;;;;;;;;;;;;;15.73;68.36;101104.41;108861;1268;59436;-90
2023/09/14 03:48:55;;;;;;;;;;;;;;;15.67;68.34;101105.81;108813;1269;59184;-90
2023/09/14 03:52:24;;;;;;;;;;;;;;;15.64;68.46;101104.71;108466;1274;73170;-90
2023/09/14 03:55:53;;;;;;;;;;;;;;;15.62;68.45;101105.11;108445;1274;67202;-89
2023/09/14 03:59:19;;;;;;;;;;;;;;;15.59;68.54;101112.00;108453;1274;71224;-89
2023/09/14 04:02:46;;;;;;;;;;;;;;;15.62;68.52;101117.27;108456;1274;60050;-89
2023/09/14 04:06:12;;;;;;;;;;;;;;;15.61;68.56;101119.73;108465;1274;59217;-90
2023/09/14 04:09:41;;;;;;;;;;;;;;;15.62;68.80;101126.84;108470;1274;73150;-90
2023/09/14 06:09:15;;;;;;;;;;;;;;;17.82;69.48;101219.89;109357;1262;65979;-89
2023/09/14 06:12:41;;;;;;;;;;;;;;;18.68;68.68;101227.63;109333;1262;71074;-89
2023/09/14 06:16:07;;;;;;;;;;;;;;;18.99;68.64;101233.33;109344;1262;58871;-89
2023/09/14 06:19:33;;;;;;;;;;;;;;;19.26;68.36;101240.23;109337;1262;58855;-89
2023/09/14 06:22:59;;;;;;;;;;;;;;;19.35;68.33;101241.77;109358;1262;73619;-89
2023/09/14 06:26:26;;;;;;;;;;;;;;;19.36;68.18;101247.84;109347;1262;67411;-89
2023/09/14 06:29:52;;;;;;;;;;;;;;;19.29;68.34;101248.99;101477;1263;5003222;-89
2023/09/14 06:33:18;;;;;;;;;;;;;;;19.26;68.34;101247.38;109355;1262;59565;-89
2023/09/14 06:36:45;;;;;;;;;;;;;;;19.23;68.21;101248.95;109338;1262;58799;-89
2023/09/14 06:40:11;;;;;;;;;;;;;;;19.84;68.29;101246.63;109382;1262;74327;-89
2023/09/14 06:43:37;;;;;;;;;;;;;;;21.02;68.07;101248.45;109344;1262;69254;-89
2023/09/14 06:47:04;;;;;;;;;;;;;;;22.33;67.47;101254.75;109330;1263;73403;-89
2023/09/14 06:50:30;;;;;;;;;;;;;;;22.76;66.95;101260.77;109326;1262;58894;-89
2023/09/14 06:53:56;;;;;;;;;;;;;;;23.40;67.15;101265.30;108746;1270;59001;-89
2023/09/14 06:57:22;;;;;;;;;;;;;;;24.51;66.54;101266.73;108728;1270;73326;-89
2023/09/14 07:00:49;;;;;;;;;;;;;;;25.01;66.48;101268.92;108755;1270;67433;-90
2023/09/14 07:04:15;;;;;;;;;;;;;;;25.36;65.95;101269.98;108723;1270;71935;-89
2023/09/14 07:07:41;;;;;;;;;;;;;;;25.57;65.89;101272.98;108758;1270;59322;-89
2023/09/14 07:11:08;;;;;;;;;;;;;;;26.64;65.84;101280.00;108730;1270;59228;-89
2023/09/14 07:14:34;;;;;;;;;;;;;;;27.81;65.46;101285.84;108751;1271;74877;-89
2023/09/14 07:18:00;;;;;;;;;;;;;;;27.53;64.67;101288.42;108719;1270;67211;-89
2023/09/14 07:21:27;;;;;;;;;;;;;;;27.84;65.22;101290.59;108730;1270;71260;-89
2023/09/14 07:24:52;;;;;;;;;;;;;;;28.01;64.88;101291.41;108767;1270;58730;-89
2023/09/14 07:28:19;;;;;;;;;;;;;;;28.71;64.28;101295.71;108725;1270;60044;-89
2023/09/14 07:31:46;;;;;;;;;;;;;;;28.87;63.87;101294.89;109324;1262;75594;-89
2023/09/14 07:35:11;;;;;;;;;;;;;;;29.04;63.61;101295.44;109340;1263;68526;-89
2023/09/14 07:38:37;;;;;;;;;;;;;;;28.86;63.17;101296.96;109228;1263;71277;-89
2023/09/14 07:42:03;;;;;;;;;;;;;;;28.20;63.47;101301.60;109288;1262;59675;-89
2023/09/14 07:45:30;;;;;;;;;;;;;;;27.93;63.29;101301.57;108681;1271;59679;-89
2023/09/14 07:48:55;;;;;;;;;;;;;;;27.92;62.87;101309.47;108710;1270;73885;-89
2023/09/14 07:52:23;;;;;;;;;;;;;;;28.84;62.40;101308.83;108675;1270;69096;-89
2023/09/14 07:55:52;;;;;;;;;;;;;;;30.32;61.03;101312.35;108708;1270;71403;-89
2023/09/14 07:59:14;;;;;;;;;;;;;;;31.26;60.13;101310.03;108715;1270;59235;-89
2023/09/14 08:02:40;;;;;;;;;;;;;;;31.80;60.03;101308.39;108738;1270;58893;-89
2023/09/14 08:06:06;;;;;;;;;;;;;;;32.96;59.59;101310.25;108713;1270;73400;-89
2023/09/14 08:09:12;;;;;;;;;;;;;;;34.01;58.93;101312.42;108702;1270;67231;-89
2023/09/14 08:12:38;;;;;;;;;;;;;;;34.47;58.38;101315.52;108751;1270;71089;-89
2023/09/14 08:16:04;;;;;;;;;;;;;;;35.33;57.67;101315.98;108729;1270;58271;-89
2023/09/14 08:19:31;;;;;;;;;;;;;;;35.88;57.09;101321.23;108567;1271;59014;-89
2023/09/14 08:22:56;;;;;;;;;;;;;;;36.18;56.66;101326.44;108932;1266;73733;-89
2023/09/14 08:26:25;;;;;;;;;;;;;;;36.70;56.45;101322.96;108988;1266;67330;-89
2023/09/14 08:29:50;;;;;;;;;;;;;;;35.11;56.05;101321.84;108513;1273;71254;-89
2023/09/14 08:33:16;;;;;;;;;;;;;;;32.96;56.58;101324.17;108496;1273;59301;-89
2023/09/14 08:36:42;;;;;;;;;;;;;;;31.20;56.09;101321.66;108523;1274;58892;-89
2023/09/14 08:40:09;;;;;;;;;;;;;;;29.86;56.06;101325.11;108534;1273;73068;-89
2023/09/14 08:43:33;;;;;;;;;;;;;;;28.94;55.86;101322.75;108611;1271;67804;-89
2023/09/14 08:46:59;;;;;;;;;;;;;;;27.98;55.25;101325.30;108661;1271;72433;-88
2023/09/14 08:50:25;;;;;;;;;;;;;;;27.24;55.00;101328.67;108668;1271;59548;-88
2023/09/14 08:53:51;;;;;;;;;;;;;;;26.56;54.48;101337.05;108671;1271;59048;-89
2023/09/14 08:57:18;;;;;;;;;;;;;;;25.92;54.30;101339.21;108631;1271;73268;-89
2023/09/14 09:00:47;;;;;;;;;;;;;;;25.45;54.00;101340.45;108614;1271;68557;-89
2023/09/14 09:04:13;;;;;;;;;;;;;;;24.92;53.84;101345.92;108631;1271;71703;-88
2023/09/14 09:07:40;;;;;;;;;;;;;;;24.49;53.66;101347.07;109322;1263;59164;-88
2023/09/14 09:11:07;;;;;;;;;;;;;;;24.02;53.52;101352.58;108721;1270;59755;-89
2023/09/14 09:14:32;;;;;;;;;;;;;;;23.74;53.61;101347.27;108713;1270;74383;-88
2023/09/14 09:17:58;;;;;;;;;;;;;;;23.53;53.45;101348.17;108738;1270;68410;-88
2023/09/14 09:21:24;;;;;;;;;;;;;;;23.28;53.28;101350.48;108731;1271;72439;-88
2023/09/14 09:24:50;;;;;;;;;;;;;;;22.92;53.19;101338.48;108739;1270;59023;-89
2023/09/14 09:28:26;;;;;;;;;;;;;;;22.72;53.41;101343.23;108785;1270;58864;-89
2023/09/14 09:32:02;;;;;;;;;;;;;;;22.67;53.34;101348.29;108760;1271;74748;-89
2023/09/14 09:35:37;;;;;;;;;;;;;;;22.60;53.25;101345.52;108791;1270;68337;-90
2023/09/14 09:39:17;;;;;;;;;;;;;;;;;;;;;
2023/09/14 09:42:14;;;;;;;;;;;;;;;22.11;53.31;101339.70;108771;1271;59234;-88
2023/09/14 09:50:52;;;;;;;;;;;;;;;21.80;53.12;101344.33;109348;1262;67698;-88
2023/09/14 09:54:24;;;;;;;;;;;;;;;21.65;53.47;101342.08;109059;1265;71342;-88
2023/09/14 09:57:36;;;;;;;;;;;;;;;21.62;53.57;101342.05;108957;1266;59108;-88
2023/09/14 10:00:49;;;;;;;;;;;;;;;21.58;53.70;101340.85;108908;1266;59227;-88
2023/09/14 10:03:43;;;;;;;;;;;;;;;21.59;53.80;101335.92;108941;1266;72976;-88
2023/09/14 10:06:49;;;;;;;;;;;;;;;21.60;53.76;101336.05;108932;1266;67205;-89
2023/09/14 10:09:39;;;;;;;;;;;;;;;21.60;53.67;101333.20;108972;1266;71242;-88
2023/09/14 10:12:29;;;;;;;;;;;;;;;21.66;53.78;101331.17;108926;1266;58731;-87
2023/09/14 10:15:16;;;;;;;;;;;;;;;21.78;53.72;101332.67;108578;1266;317352;-87
2023/09/14 10:18:22;;;;;;;;;;;;;;;21.85;53.83;101330.71;108810;1266;72098;-89
2023/09/14 10:21:28;;;;;;;;;;;;;;;21.88;53.80;101330.84;108890;1266;68086;-89
2023/09/14 10:24:37;;;;;;;;;;;;;;;21.93;53.77;101331.69;109074;1263;71256;-90
2023/09/14 10:27:42;;;;;;;;;;;;;;;22.01;53.84;101331.45;109122;1263;58843;-88
2023/09/14 10:31:08;;;;;;;;;;;;;;;22.13;53.65;101337.69;109280;1263;59138;-90
2023/09/14 10:42:19;;;;;;;;;;;;;;;21.80;54.13;101338.14;109290;1263;83009;-88
2023/09/14 10:45:32;;;;;;;;;;;;;;;21.84;54.18;101335.71;109245;1263;59279;-87
2023/09/14 10:48:38;;;;;;;;;;;;;;;21.86;54.00;101335.02;109488;1262;73700;-91
2023/09/14 10:51:45;;;;;;;;;;;;;;;21.87;53.96;101339.41;109380;1263;67243;-88
2023/09/14 10:54:31;;;;;;;;;;;;;;;21.90;53.97;101341.68;109130;1262;71082;-87
2023/09/14 10:57:23;;;;;;;;;;;;;;;21.83;53.89;101342.05;109185;1263;58939;-89
2023/09/14 11:00:29;;;;;;;;;;;;;;;21.69;53.94;101346.11;109196;1263;58892;-89
2023/09/14 11:03:53;;;;;;;;;;;;;;;21.53;53.99;101345.15;109380;1262;72288;-89
2023/09/14 11:07:04;;;;;;;;;;;;;;;21.45;54.21;101345.19;109329;1262;67985;-88
2023/09/14 11:10:22;;;;;;;;;;;;;;;21.39;54.06;101342.52;109359;1263;72092;-89
2023/09/14 11:13:33;;;;;;;;;;;;;;;21.33;54.20;101338.11;109342;1263;59058;-89
2023/09/14 11:16:57;;;;;;;;;;;;;;;21.38;54.40;101334.52;109202;1263;59427;-89
2023/09/14 11:20:20;;;;;;;;;;;;;;;21.45;54.34;101330.98;109342;1263;74457;-88
2023/09/14 11:23:26;;;;;;;;;;;;;;;21.53;54.35;101330.23;109339;1263;67125;-89
2023/09/14 11:26:53;;;;;;;;;;;;;;;21.61;54.17;101332.67;109321;1263;72249;-89
2023/09/14 11:30:04;;;;;;;;;;;;;;;21.70;54.10;101331.50;109320;1263;59018;-89
2023/09/14 11:33:30;;;;;;;;;;;;;;;21.73;54.01;101332.20;109349;1263;59915;-89
2023/09/14 11:36:38;;;;;;;;;;;;;;;21.76;54.10;101331.52;109333;1262;74417;-88
2023/09/14 11:39:52;;;;;;;;;;;;;;;21.77;54.17;101336.73;109299;1262;67187;-88
2023/09/14 11:43:28;;;;;;;;;;;;;;;21.75;54.04;101339.81;109210;1263;72448;-89
2023/09/14 11:46:52;;;;;;;;;;;;;;;21.69;54.00;101338.55;108684;1271;58986;-89
2023/09/14 11:50:01;;;;;;;;;;;;;;;21.68;54.18;101344.74;108668;1271;59808;-88
2023/09/14 11:53:08;;;;;;;;;;;;;;;21.63;54.27;101344.12;108667;1271;73787;-88
2023/09/14 11:56:14;;;;;;;;;;;;;;;21.55;54.34;101342.61;108664;1271;67152;-88
2023/09/14 11:59:02;;;;;;;;;;;;;;;21.48;54.21;101343.48;108634;1271;71088;-88
2023/09/14 12:01:51;;;;;;;;;;;;;;;21.41;54.13;101344.17;108657;1271;58945;-88
2023/09/14 12:04:57;;;;;;;;;;;;;;;21.29;53.90;101346.88;108608;1276;59871;-88
2023/09/14 12:08:19;;;;;;;;;;;;;;;21.25;54.25;101343.97;108665;1271;73285;-88
2023/09/14 12:11:56;;;;;;;;;;;;;;;21.23;54.27;101340.73;108660;1271;67399;-88
2023/09/14 12:15:22;;;;;;;;;;;;;;;21.25;54.38;101337.29;108683;1271;71182;-88
2023/09/14 12:19:00;;;;;;;;;;;;;;;21.29;54.36;101336.72;108661;1271;59359;-89
2023/09/14 12:22:06;;;;;;;;;;;;;;;21.31;54.37;101341.04;108931;1262;58967;-88
2023/09/14 12:25:12;;;;;;;;;;;;;;;21.31;54.45;101338.70;109317;1263;73971;-88
2023/09/14 12:28:35;;;;;;;;;;;;;;;21.36;54.45;101331.08;109359;1262;66750;-88
2023/09/14 12:31:41;;;;;;;;;;;;;;;21.39;54.44;101330.05;109358;1262;71227;-88
2023/09/14 12:34:44;;;;;;;;;;;;;;;21.42;54.22;101324.45;109315;1262;58845;-88
2023/09/14 12:37:34;;;;;;;;;;;;;;;21.48;54.40;101329.61;109346;1262;59673;-88
2023/09/14 12:41:00;;;;;;;;;;;;;;;21.59;54.22;101332.21;109348;1262;74046;-88
2023/09/14 12:44:26;;;;;;;;;;;;;;;21.71;54.20;101333.87;109363;1262;68322;-89
2023/09/14 12:47:52;;;;;;;;;;;;;;;21.77;54.10;101337.77;109272;1263;71293;-88
2023/09/14 12:50:40;;;;;;;;;;;;;;;21.80;54.09;101341.88;109345;1263;58751;-88
2023/09/14 12:53:49;;;;;;;;;;;;;;;21.84;54.19;101339.72;109196;1263;59658;-88
2023/09/14 12:57:15;;;;;;;;;;;;;;;21.91;54.13;101343.57;109360;1263;73183;-88
2023/09/14 13:00:33;;;;;;;;;;;;;;;21.89;54.10;101337.17;109340;1263;68066;-88
2023/09/14 13:03:57;;;;;;;;;;;;;;;21.87;54.21;101336.92;109373;1263;71284;-88
2023/09/14 13:07:21;;;;;;;;;;;;;;;21.85;54.14;101333.55;109302;1263;59122;-88
2023/09/14 13:10:43;;;;;;;;;;;;;;;21.79;54.19;101336.27;109337;1262;59708;-88
2023/09/14 13:13:33;;;;;;;;;;;;;;;21.78;54.45;101336.88;109383;1262;72249;-88
2023/09/14 13:16:43;;;;;;;;;;;;;;;21.82;54.26;101337.57;109320;1263;67442;-88
2023/09/14 13:19:50;;;;;;;;;;;;;;;21.84;54.26;101344.83;109339;1262;71067;-89
2023/09/14 13:23:16;;;;;;;;;;;;;;;21.80;54.11;101347.66;109369;1262;58935;-88
2023/09/14 13:26:42;;;;;;;;;;;;;;;21.69;53.98;101349.61;109345;1263;59951;-88
2023/09/14 13:29:37;;;;;;;;;;;;;;;21.60;53.98;101347.46;109349;1263;73143;-88
2023/09/14 13:33:03;;;;;;;;;;;;;;;21.56;54.15;101347.64;109354;1262;68659;-88
2023/09/14 13:36:29;;;;;;;;;;;;;;;21.57;54.02;101342.86;109310;1264;70104;-89
2023/09/14 13:42:19;;;;;;;;;;;;;;;21.59;53.80;101341.37;109380;1262;60011;-88
2023/09/14 13:45:29;;;;;;;;;;;;;;;21.59;53.86;101338.89;109358;1262;74468;-88
2023/09/14 13:48:36;;;;;;;;;;;;;;;21.62;54.00;101334.33;109343;1262;67318;-88
2023/09/14 13:51:49;;;;;;;;;;;;;;;21.67;53.75;101327.94;109392;1262;71232;-89
2023/09/14 13:54:52;;;;;;;;;;;;;;;21.72;53.86;101326.84;109347;1262;58790;-88
2023/09/14 13:57:58;;;;;;;;;;;;;;;21.74;53.77;101332.34;109329;1262;58966;-89
2023/09/14 14:01:04;;;;;;;;;;;;;;;21.72;53.64;101332.24;109335;1262;73873;-88
2023/09/14 14:04:14;;;;;;;;;;;;;;;21.69;53.54;101331.86;109344;1262;66903;-89
2023/09/14 14:07:40;;;;;;;;;;;;;;;21.66;53.67;101332.20;109322;1262;71695;-89
2023/09/14 14:11:19;;;;;;;;;;;;;;;;;;;;;
2023/09/14 14:14:32;;;;;;;;;;;;;;;21.61;53.74;101326.53;109316;1262;58945;-88
2023/09/14 14:17:58;;;;;;;;;;;;;;;21.57;53.70;101322.15;109308;1262;74448;-88
2023/09/14 14:21:34;;;;;;;;;;;;;;;21.52;53.71;101320.51;109275;1262;67335;-88
2023/09/14 14:24:51;;;;;;;;;;;;;;;21.45;53.79;101322.90;109350;1262;71276;-88
2023/09/14 14:27:41;;;;;;;;;;;;;;;21.40;53.90;101327.05;109277;1262;58952;-89
2023/09/14 14:31:05;;;;;;;;;;;;;;;21.35;53.87;101328.70;109307;1262;58806;-89
2023/09/14 14:34:13;;;;;;;;;;;;;;;21.30;53.99;101331.78;109298;1262;74157;-88
2023/09/14 14:37:37;;;;;;;;;;;;;;;21.26;53.90;101332.69;109349;1262;67241;-88
2023/09/14 14:40:59;;;;;;;;;;;;;;;21.24;53.76;101331.73;109231;1262;71368;-88
2023/09/14 14:43:53;;;;;;;;;;;;;;;21.22;53.72;101329.71;109307;1262;58682;-88
2023/09/14 14:46:44;;;;;;;;;;;;;;;21.22;53.80;101329.52;109294;1262;58993;-89
2023/09/14 14:49:34;;;;;;;;;;;;;;;21.23;53.78;101327.23;109131;1262;74259;-88
2023/09/14 14:52:20;;;;;;;;;;;;;;;21.23;53.77;101323.70;109109;1263;67796;-88
2023/09/14 14:55:08;;;;;;;;;;;;;;;21.23;53.64;101321.59;109078;1264;71174;-88
2023/09/14 14:58:03;;;;;;;;;;;;;;;21.24;53.50;101323.85;109085;1262;59175;-88
2023/09/14 15:01:28;;;;;;;;;;;;;;;21.23;53.49;101324.77;109307;1262;58653;-88
2023/09/14 15:04:37;;;;;;;;;;;;;;;21.22;53.57;101324.45;109297;1263;73232;-88
2023/09/14 15:07:34;;;;;;;;;;;;;;;21.23;53.65;101327.55;109302;1262;68289;-89
2023/09/14 15:10:42;;;;;;;;;;;;;;;21.24;53.44;101328.76;109298;1262;72705;-88
2023/09/14 15:13:32;;;;;;;;;;;;;;;21.23;53.36;101330.73;109104;1262;59276;-88
2023/09/14 15:16:19;;;;;;;;;;;;;;;21.22;53.33;101334.96;109325;1262;58604;-88
2023/09/14 15:19:07;;;;;;;;;;;;;;;21.22;53.34;101334.64;109130;1262;75219;-88
2023/09/14 15:22:32;;;;;;;;;;;;;;;21.21;53.21;101337.28;109318;1262;68412;-88
2023/09/14 15:25:30;;;;;;;;;;;;;;;21.20;53.45;101340.82;109354;1262;70974;-89
2023/09/14 15:28:51;;;;;;;;;;;;;;;21.19;53.44;101347.88;109325;1262;58823;-89
2023/09/14 15:32:17;;;;;;;;;;;;;;;21.16;53.29;101349.80;109293;1262;58792;-89
2023/09/14 15:35:25;;;;;;;;;;;;;;;21.14;53.19;101355.49;109237;1262;73104;-89
2023/09/14 15:38:35;;;;;;;;;;;;;;;21.10;53.38;101353.59;109264;1262;67906;-89
2023/09/14 15:41:51;;;;;;;;;;;;;;;21.07;53.32;101359.50;109165;1262;71200;-89
2023/09/14 15:44:45;;;;;;;;;;;;;;;21.06;53.24;101364.63;109159;1262;58858;-89
2023/09/14 15:47:33;;;;;;;;;;;;;;;21.06;53.06;101364.80;109099;1262;59525;-88
2023/09/14 15:50:19;;;;;;;;;;;;;;;21.06;53.06;101371.13;109101;1263;73267;-87
2023/09/14 15:53:05;;;;;;;;;;;;;;;21.07;53.00;101371.09;109096;1263;66039;-88
2023/09/14 15:55:53;;;;;;;;;;;;;;;21.10;52.98;101372.85;109096;1262;72320;-88
2023/09/14 15:58:39;;;;;;;;;;;;;;;21.13;52.93;101373.24;109088;1263;58798;-88
2023/09/14 16:01:25;;;;;;;;;;;;;;;21.14;52.99;101374.95;109080;1262;59697;-88
2023/09/14 16:04:13;;;;;;;;;;;;;;;21.15;52.77;101372.77;109046;1262;74345;-88
2023/09/14 16:06:59;;;;;;;;;;;;;;;21.15;52.89;101370.16;109086;1262;67769;-88
2023/09/14 16:09:45;;;;;;;;;;;;;;;21.15;52.78;101376.64;109214;1262;72427;-88
2023/09/14 16:12:31;;;;;;;;;;;;;;;21.13;52.80;101378.85;109209;1262;59641;-87
2023/09/14 16:15:20;;;;;;;;;;;;;;;21.11;52.76;101380.52;109090;1262;59830;-90
2023/09/14 16:18:06;;;;;;;;;;;;;;;21.10;52.84;101387.06;109237;1263;73194;-87
2023/09/14 16:20:52;;;;;;;;;;;;;;;21.07;52.75;101387.17;109070;1263;67326;-87
2023/09/14 16:23:39;;;;;;;;;;;;;;;21.05;52.69;101387.50;109066;1263;71255;-87
2023/09/14 16:26:24;;;;;;;;;;;;;;;21.02;52.68;101390.27;109073;1263;58632;-86
2023/09/14 16:29:10;;;;;;;;;;;;;;;20.99;52.82;101393.04;109035;1263;60161;-86
2023/09/14 16:31:56;;;;;;;;;;;;;;;20.96;52.87;101390.20;109062;1262;74943;-86
2023/09/14 16:34:42;;;;;;;;;;;;;;;20.92;52.98;101390.20;109032;1263;68383;-86
2023/09/14 16:37:28;;;;;;;;;;;;;;;20.87;52.98;101390.61;109276;1262;72755;-86
2023/09/14 16:40:15;;;;;;;;;;;;;;;20.83;52.90;101390.61;109283;1262;58770;-86
2023/09/14 16:43:01;;;;;;;;;;;;;;;20.79;52.94;101392.36;109038;1262;284360;-86
2023/09/14 16:45:47;;;;;;;;;;;;;;;20.77;53.07;101388.11;109252;1262;73096;-86
2023/09/14 16:48:37;;;;;;;;;;;;;;;20.74;53.12;101389.13;109111;1263;69087;-86
2023/09/14 16:51:23;;;;;;;;;;;;;;;20.71;53.08;101392.60;109098;1263;71207;-86
2023/09/14 16:54:08;;;;;;;;;;;;;;;20.67;53.17;101394.89;109082;1263;58632;-86
2023/09/14 16:56:55;;;;;;;;;;;;;;;20.62;53.10;101399.83;109101;1262;58937;-86
2023/09/14 16:59:41;;;;;;;;;;;;;;;20.58;53.31;101399.70;108971;1264;73499;-86
2023/09/14 17:02:27;;;;;;;;;;;;;;;20.53;53.23;101400.09;109079;1262;68286;-86
2023/09/14 17:05:16;;;;;;;;;;;;;;;20.48;53.23;101400.46;109282;1262;72841;-86
2023/09/14 17:08:01;;;;;;;;;;;;;;;20.44;53.18;101402.21;109309;1262;59227;-86
2023/09/14 17:10:47;;;;;;;;;;;;;;;20.41;53.32;101401.33;109296;1261;58942;-86
2023/09/14 17:13:33;;;;;;;;;;;;;;;20.37;53.52;101406.02;109128;1262;73975;-86
2023/09/14 17:16:19;;;;;;;;;;;;;;;20.31;53.49;101401.02;109271;1262;68111;-86
2023/09/14 17:19:06;;;;;;;;;;;;;;;20.24;53.46;101406.61;109050;1261;70995;-87
2023/09/14 17:21:52;;;;;;;;;;;;;;;20.15;53.57;101407.34;109235;1262;58897;-86
2023/09/14 17:24:38;;;;;;;;;;;;;;;20.08;53.48;101412.91;109246;1262;59736;-86
2023/09/14 17:27:25;;;;;;;;;;;;;;;19.99;53.50;101416.26;109137;1263;74460;-87
2023/09/14 17:30:11;;;;;;;;;;;;;;;19.90;53.45;101417.88;109112;1263;67378;-87
2023/09/14 17:32:57;;;;;;;;;;;;;;;19.80;53.62;101421.59;109221;1262;70948;-87
2023/09/14 17:35:43;;;;;;;;;;;;;;;19.74;53.67;101422.06;109278;1263;58874;-86
2023/09/14 17:38:30;;;;;;;;;;;;;;;19.66;53.66;101426.27;109119;1261;58909;-88
2023/09/14 17:41:16;;;;;;;;;;;;;;;19.57;53.82;101429.76;109308;1262;73202;-87
2023/09/14 17:44:02;;;;;;;;;;;;;;;19.48;53.80;101434.27;109168;1262;67425;-87
2023/09/14 17:46:48;;;;;;;;;;;;;;;19.39;53.96;101433.23;109182;1263;71392;-86
2023/09/14 17:49:34;;;;;;;;;;;;;;;19.29;54.04;101436.95;109127;1262;58944;-87
2023/09/14 17:52:20;;;;;;;;;;;;;;;19.24;54.09;101442.38;109287;1262;68013;-88
2023/09/14 17:55:07;;;;;;;;;;;;;;;19.19;54.10;101439.30;109140;1263;74322;-88
2023/09/14 17:57:53;;;;;;;;;;;;;;;19.14;54.24;101442.09;109218;1263;68401;-88
2023/09/14 18:00:40;;;;;;;;;;;;;;;19.12;54.30;101445.33;109201;1262;70849;-88
2023/09/14 18:03:27;;;;;;;;;;;;;;;19.10;54.26;101445.92;109183;1261;58893;-88
2023/09/14 18:06:14;;;;;;;;;;;;;;;19.05;54.39;101446.14;109283;1262;58593;-88
2023/09/14 18:09:00;;;;;;;;;;;;;;;18.98;54.46;101450.42;109145;1263;73042;-87
2023/09/14 18:11:46;;;;;;;;;;;;;;;18.91;54.63;101453.84;108950;1263;92130;-87
2023/09/14 18:14:32;;;;;;;;;;;;;;;18.83;54.74;101457.94;109127;1263;71908;-87
2023/09/14 18:17:26;;;;;;;;;;;;;;;18.79;54.67;101460.02;109122;1262;59507;-89
2023/09/14 18:20:15;;;;;;;;;;;;;;;18.73;54.78;101462.85;109127;1263;59711;-87
2023/09/14 18:25:36;;;;;;;;;;;;;;;18.56;54.90;101465.05;109366;1262;65254;-88
2023/09/14 18:28:27;;;;;;;;;;;;;;;18.48;55.12;101461.31;109294;1262;72417;-88
2023/09/14 18:31:14;;;;;;;;;;;;;;;18.41;55.04;101462.95;109337;1262;58983;-88
2023/09/14 18:34:02;;;;;;;;;;;;;;;18.33;55.18;101463.59;109360;1261;59547;-88
2023/09/14 18:36:49;;;;;;;;;;;;;;;18.24;55.13;101462.85;109243;1262;73071;-88
2023/09/14 18:39:35;;;;;;;;;;;;;;;18.17;55.24;101467.45;109296;1262;67303;-88
2023/09/14 18:42:21;;;;;;;;;;;;;;;18.11;55.32;101473.42;109137;1261;70057;-86